PWSweather.com
Personal Weather Stations
Station Observations
ARECO747
Argentina , San Antonio ArecoAR Bs.As

Argentina San Antonio ArecoAR Bs.As

Lat: -34.24447275818, Lon: -59.47654187679

Elevation: 102

Station Type: InformaciĆ³n generada con nuevo Microchip Ethernet conectado a estaciĆ³n WH1081

http://www.meteostar.com.ar

High Low Average
Temperature 84.9°F29.4°C 55.2°F12.9°C 69.8°F21.0°C
Dew Point 57.9°F14.4°C 47.8°F8.8°C 53.8°F12.1°C
Winds 12.1 mph 19.5 kmh 0.7 mph 1.1 kmh 4.0 mph E6.4 kmh E
Wind Gusts 19.0 mph30.6 kmh -- 8.0 mph12.9 kmh
Humidity 77% 40% 58%
Pressure 29.73 in1006.8 mb 29.61 in1002.7 mb -
Precipitation 0.00 in0.0 mm - -
Hour Temp Dew Point Humidity Winds Wind Gusts Pressure Precip Precip Rate Daily Precip Total
12:03 AM 63.3°F17.4°C 51.4°F10.8°C 65% 3.8 mph 6.1 kmh 12.1 mph19.5 kmh 29.71 in1006.1 mb 0.00 in0.0 mm 0.00 in0.0 mm 0.00 in0.0 mm
12:08 AM 63.3°F17.4°C 51.4°F10.8°C 65% 3.1 mph 5.0 kmh 9.2 mph14.8 kmh 29.71 in1006.1 mb 0.00 in0.0 mm 0.00 in0.0 mm 0.00 in0.0 mm
12:13 AM 62.8°F17.1°C 51.3°F10.7°C 66% 3.8 mph 6.1 kmh 7.6 mph12.2 kmh 29.71 in1006.1 mb 0.00 in0.0 mm 0.00 in0.0 mm 0.00 in0.0 mm
12:18 AM 62.8°F17.1°C 51.3°F10.7°C 66% 4.5 mph NE7.2 kmh NE 7.6 mph12.2 kmh 29.71 in1006.1 mb 0.00 in0.0 mm 0.00 in0.0 mm 0.00 in0.0 mm
12:23 AM 62.8°F17.1°C 51.3°F10.7°C 66% 3.1 mph 5.0 kmh 9.8 mph15.8 kmh 29.71 in1006.1 mb 0.00 in0.0 mm 0.00 in0.0 mm 0.00 in0.0 mm
12:29 AM 62.8°F17.1°C 51.3°F10.7°C 66% 3.8 mph 6.1 kmh 9.2 mph14.8 kmh 29.71 in1006.1 mb 0.00 in0.0 mm 0.00 in0.0 mm 0.00 in0.0 mm
12:34 AM 62.4°F16.9°C 51.8°F11.0°C 68% 3.8 mph 6.1 kmh 8.3 mph13.4 kmh 29.71 in1006.1 mb 0.00 in0.0 mm 0.00 in0.0 mm 0.00 in0.0 mm
12:39 AM 62.2°F16.8°C 51.6°F10.9°C 68% 6.0 mph 9.7 kmh 8.3 mph13.4 kmh 29.71 in1006.1 mb 0.00 in0.0 mm 0.00 in0.0 mm 0.00 in0.0 mm
12:44 AM 62.2°F16.8°C 51.6°F10.9°C 68% 5.4 mph 8.7 kmh 9.2 mph14.8 kmh 29.71 in1006.1 mb 0.00 in0.0 mm 0.00 in0.0 mm 0.00 in0.0 mm
12:49 AM 62.2°F16.8°C 51.6°F10.9°C 68% 5.4 mph 8.7 kmh 8.3 mph13.4 kmh 29.70 in1005.8 mb 0.00 in0.0 mm 0.00 in0.0 mm 0.00 in0.0 mm
12:54 AM 62.1°F16.7°C 51.4°F10.8°C 68% 4.5 mph NE7.2 kmh NE 8.3 mph13.4 kmh 29.70 in1005.8 mb 0.00 in0.0 mm 0.00 in0.0 mm 0.00 in0.0 mm
01:00 AM 61.9°F16.6°C 51.3°F10.7°C 68% 3.8 mph 6.1 kmh 7.6 mph12.2 kmh 29.70 in1005.8 mb 0.00 in0.0 mm 0.00 in0.0 mm 0.00 in0.0 mm
01:05 AM 61.7°F16.5°C 51.1°F10.6°C 68% 4.5 mph NNW7.2 kmh NNW 7.6 mph12.2 kmh 29.70 in1005.8 mb 0.00 in0.0 mm 0.00 in0.0 mm 0.00 in0.0 mm
01:10 AM 61.7°F16.5°C 51.1°F10.6°C 68% 2.2 mph 3.5 kmh 6.9 mph11.1 kmh 29.70 in1005.8 mb 0.00 in0.0 mm 0.00 in0.0 mm 0.00 in0.0 mm
01:15 AM 61.7°F16.5°C 51.1°F10.6°C 68% 3.1 mph NW5.0 kmh NW 9.2 mph14.8 kmh 29.70 in1005.8 mb 0.00 in0.0 mm 0.00 in0.0 mm 0.00 in0.0 mm
01:20 AM 61.5°F16.4°C 50.9°F10.5°C 68% 3.1 mph 5.0 kmh 7.6 mph12.2 kmh 29.70 in1005.8 mb 0.00 in0.0 mm 0.00 in0.0 mm 0.00 in0.0 mm
01:25 AM 61.3°F16.3°C 50.7°F10.4°C 68% 4.5 mph 7.2 kmh 7.6 mph12.2 kmh 29.70 in1005.8 mb 0.00 in0.0 mm 0.00 in0.0 mm 0.00 in0.0 mm
01:31 AM 61.3°F16.3°C 50.7°F10.4°C 68% 5.4 mph 8.7 kmh 9.2 mph14.8 kmh 29.70 in1005.8 mb 0.00 in0.0 mm 0.00 in0.0 mm 0.00 in0.0 mm
01:36 AM 61.5°F16.4°C 50.9°F10.5°C 68% 3.1 mph NW5.0 kmh NW 9.2 mph14.8 kmh 29.70 in1005.8 mb 0.00 in0.0 mm 0.00 in0.0 mm 0.00 in0.0 mm
01:41 AM 61.7°F16.5°C 50.7°F10.4°C 67% 5.4 mph NW8.7 kmh NW 9.2 mph14.8 kmh 29.70 in1005.8 mb 0.00 in0.0 mm 0.00 in0.0 mm 0.00 in0.0 mm
01:46 AM 61.7°F16.5°C 50.7°F10.4°C 67% 3.1 mph E5.0 kmh E 10.7 mph17.2 kmh 29.70 in1005.8 mb 0.00 in0.0 mm 0.00 in0.0 mm 0.00 in0.0 mm
01:51 AM 61.7°F16.5°C 50.7°F10.4°C 67% 6.0 mph NW9.7 kmh NW 13.0 mph20.9 kmh 29.70 in1005.8 mb 0.00 in0.0 mm 0.00 in0.0 mm 0.00 in0.0 mm
01:56 AM 61.5°F16.4°C 50.5°F10.3°C 67% 4.5 mph 7.2 kmh 10.7 mph17.2 kmh 29.70 in1005.8 mb 0.00 in0.0 mm 0.00 in0.0 mm 0.00 in0.0 mm
02:02 AM 61.2°F16.2°C 50.2°F10.1°C 67% 3.8 mph 6.1 kmh -- 29.70 in1005.8 mb 0.00 in0.0 mm 0.00 in0.0 mm 0.00 in0.0 mm
02:04 AM 61.0°F16.1°C 50.0°F10.0°C 67% 3.8 mph 6.1 kmh -- 29.70 in1005.8 mb 0.00 in0.0 mm 0.00 in0.0 mm 0.00 in0.0 mm
02:10 AM 60.8°F16.0°C 50.2°F10.1°C 68% 5.4 mph W8.7 kmh W 9.2 mph14.8 kmh 29.70 in1005.8 mb 0.00 in0.0 mm 0.00 in0.0 mm 0.00 in0.0 mm
02:15 AM 60.6°F15.9°C 50.4°F10.2°C 69% 6.0 mph NE9.7 kmh NE 9.2 mph14.8 kmh 29.70 in1005.8 mb 0.00 in0.0 mm 0.00 in0.0 mm 0.00 in0.0 mm
02:20 AM 60.4°F15.8°C 50.2°F10.1°C 69% 4.5 mph 7.2 kmh 9.2 mph14.8 kmh 29.70 in1005.8 mb 0.00 in0.0 mm 0.00 in0.0 mm 0.00 in0.0 mm
02:25 AM 60.3°F15.7°C 50.0°F10.0°C 69% 6.0 mph 9.7 kmh 10.7 mph17.2 kmh 29.70 in1005.8 mb 0.00 in0.0 mm 0.00 in0.0 mm 0.00 in0.0 mm
02:30 AM 60.1°F15.6°C 49.8°F9.9°C 69% 5.4 mph NW8.7 kmh NW 9.2 mph14.8 kmh 29.70 in1005.8 mb 0.00 in0.0 mm 0.00 in0.0 mm 0.00 in0.0 mm
02:35 AM 59.9°F15.5°C 50.2°F10.1°C 70% 8.3 mph 13.4 kmh 9.8 mph15.8 kmh 29.70 in1005.8 mb 0.00 in0.0 mm 0.00 in0.0 mm 0.00 in0.0 mm
02:41 AM 59.9°F15.5°C 50.2°F10.1°C 70% 6.9 mph NNW11.1 kmh NNW 9.2 mph14.8 kmh 29.70 in1005.8 mb 0.00 in0.0 mm 0.00 in0.0 mm 0.00 in0.0 mm
02:46 AM 59.7°F15.4°C 50.0°F10.0°C 70% 2.2 mph 3.5 kmh 9.8 mph15.8 kmh 29.70 in1005.8 mb 0.00 in0.0 mm 0.00 in0.0 mm 0.00 in0.0 mm
02:51 AM 59.5°F15.3°C 49.8°F9.9°C 70% 4.5 mph 7.2 kmh 7.6 mph12.2 kmh 29.71 in1006.1 mb 0.00 in0.0 mm 0.00 in0.0 mm 0.00 in0.0 mm
02:56 AM 59.4°F15.2°C 49.6°F9.8°C 70% 3.8 mph 6.1 kmh 7.6 mph12.2 kmh 29.70 in1005.8 mb 0.00 in0.0 mm 0.00 in0.0 mm 0.00 in0.0 mm
03:01 AM 59.2°F15.1°C 49.5°F9.7°C 70% 5.4 mph 8.7 kmh 7.6 mph12.2 kmh 29.70 in1005.8 mb 0.00 in0.0 mm 0.00 in0.0 mm 0.00 in0.0 mm
03:06 AM 59.0°F15.0°C 49.6°F9.8°C 71% 4.5 mph NNW7.2 kmh NNW 9.2 mph14.8 kmh 29.70 in1005.8 mb 0.00 in0.0 mm 0.00 in0.0 mm 0.00 in0.0 mm
03:12 AM 59.0°F15.0°C 49.6°F9.8°C 71% 2.2 mph 3.5 kmh 9.2 mph14.8 kmh 29.70 in1005.8 mb 0.00 in0.0 mm 0.00 in0.0 mm 0.00 in0.0 mm
03:17 AM 59.0°F15.0°C 49.6°F9.8°C 71% 3.1 mph NNW5.0 kmh NNW 6.0 mph9.7 kmh 29.71 in1006.1 mb 0.00 in0.0 mm 0.00 in0.0 mm 0.00 in0.0 mm
03:22 AM 58.8°F14.9°C 49.8°F9.9°C 72% 3.8 mph 6.1 kmh 6.0 mph9.7 kmh 29.70 in1005.8 mb 0.00 in0.0 mm 0.00 in0.0 mm 0.00 in0.0 mm
03:27 AM 58.6°F14.8°C 49.6°F9.8°C 72% 3.1 mph 5.0 kmh 7.6 mph12.2 kmh 29.70 in1005.8 mb 0.00 in0.0 mm 0.00 in0.0 mm 0.00 in0.0 mm
03:32 AM 58.5°F14.7°C 49.5°F9.7°C 72% 3.1 mph NE5.0 kmh NE 6.9 mph11.1 kmh 29.70 in1005.8 mb 0.00 in0.0 mm 0.00 in0.0 mm 0.00 in0.0 mm
03:38 AM 58.5°F14.7°C 49.5°F9.7°C 72% 0.7 mph NE1.1 kmh NE 6.0 mph9.7 kmh 29.70 in1005.8 mb 0.00 in0.0 mm 0.00 in0.0 mm 0.00 in0.0 mm
03:43 AM 58.1°F14.5°C 49.1°F9.5°C 72% 0.7 mph NW1.1 kmh NW 3.8 mph6.1 kmh 29.70 in1005.8 mb 0.00 in0.0 mm 0.00 in0.0 mm 0.00 in0.0 mm
03:48 AM 57.9°F14.4°C 48.9°F9.4°C 72% 2.2 mph 3.5 kmh 3.8 mph6.1 kmh 29.70 in1005.8 mb 0.00 in0.0 mm 0.00 in0.0 mm 0.00 in0.0 mm
03:53 AM 57.9°F14.4°C 48.9°F9.4°C 72% 0.7 mph NW1.1 kmh NW 3.8 mph6.1 kmh 29.70 in1005.8 mb 0.00 in0.0 mm 0.00 in0.0 mm 0.00 in0.0 mm
03:58 AM 57.7°F14.3°C 49.1°F9.5°C 73% 0.7 mph NE1.1 kmh NE 3.1 mph5.0 kmh 29.70 in1005.8 mb 0.00 in0.0 mm 0.00 in0.0 mm 0.00 in0.0 mm
04:03 AM 57.7°F14.3°C 49.1°F9.5°C 73% 0.7 mph NW1.1 kmh NW 2.2 mph3.5 kmh 29.70 in1005.8 mb 0.00 in0.0 mm 0.00 in0.0 mm 0.00 in0.0 mm
04:09 AM 57.6°F14.2°C 48.9°F9.4°C 73% 3.8 mph 6.1 kmh 5.4 mph8.7 kmh 29.70 in1005.8 mb 0.00 in0.0 mm 0.00 in0.0 mm 0.00 in0.0 mm
04:14 AM 57.7°F14.3°C 49.1°F9.5°C 73% 0.7 mph 1.1 kmh 5.4 mph8.7 kmh 29.70 in1005.8 mb 0.00 in0.0 mm 0.00 in0.0 mm 0.00 in0.0 mm
04:19 AM 57.6°F14.2°C 48.9°F9.4°C 73% 1.6 mph 2.6 kmh 3.1 mph5.0 kmh 29.70 in1005.8 mb 0.00 in0.0 mm 0.00 in0.0 mm 0.00 in0.0 mm
04:24 AM 57.6°F14.2°C 48.9°F9.4°C 73% 1.6 mph NE2.6 kmh NE 3.1 mph5.0 kmh 29.70 in1005.8 mb 0.00 in0.0 mm 0.00 in0.0 mm 0.00 in0.0 mm
04:29 AM 57.4°F14.1°C 48.7°F9.3°C 73% 0.7 mph ENE1.1 kmh ENE 3.1 mph5.0 kmh 29.70 in1005.8 mb 0.00 in0.0 mm 0.00 in0.0 mm 0.00 in0.0 mm
04:34 AM 57.2°F14.0°C 48.6°F9.2°C 73% 0.7 mph NE1.1 kmh NE 2.2 mph3.5 kmh 29.70 in1005.8 mb 0.00 in0.0 mm 0.00 in0.0 mm 0.00 in0.0 mm
04:40 AM 57.4°F14.1°C 48.7°F9.3°C 73% 1.6 mph NE2.6 kmh NE 3.8 mph6.1 kmh 29.70 in1005.8 mb 0.00 in0.0 mm 0.00 in0.0 mm 0.00 in0.0 mm
04:45 AM 57.2°F14.0°C 48.6°F9.2°C 73% 1.6 mph 2.6 kmh 3.1 mph5.0 kmh 29.70 in1005.8 mb 0.00 in0.0 mm 0.00 in0.0 mm 0.00 in0.0 mm
04:50 AM 57.2°F14.0°C 48.6°F9.2°C 73% 2.2 mph NE3.5 kmh NE 3.8 mph6.1 kmh 29.70 in1005.8 mb 0.00 in0.0 mm 0.00 in0.0 mm 0.00 in0.0 mm
04:55 AM 57.2°F14.0°C 48.6°F9.2°C 73% 2.2 mph SE3.5 kmh SE 4.5 mph7.2 kmh 29.70 in1005.8 mb 0.00 in0.0 mm 0.00 in0.0 mm 0.00 in0.0 mm
05:00 AM 57.0°F13.9°C 48.7°F9.3°C 74% 2.2 mph ENE3.5 kmh ENE 3.8 mph6.1 kmh 29.71 in1006.1 mb 0.00 in0.0 mm 0.00 in0.0 mm 0.00 in0.0 mm
05:05 AM 56.7°F13.7°C 48.4°F9.1°C 74% 2.2 mph NE3.5 kmh NE 4.5 mph7.2 kmh 29.70 in1005.8 mb 0.00 in0.0 mm 0.00 in0.0 mm 0.00 in0.0 mm
05:11 AM 56.7°F13.7°C 48.4°F9.1°C 74% 2.2 mph E3.5 kmh E 3.8 mph6.1 kmh 29.71 in1006.1 mb 0.00 in0.0 mm 0.00 in0.0 mm 0.00 in0.0 mm
05:16 AM 56.7°F13.7°C 48.4°F9.1°C 74% 0.7 mph 1.1 kmh 3.1 mph5.0 kmh 29.71 in1006.1 mb 0.00 in0.0 mm 0.00 in0.0 mm 0.00 in0.0 mm
05:21 AM 56.7°F13.7°C 48.7°F9.3°C 75% 1.6 mph 2.6 kmh 3.1 mph5.0 kmh 29.71 in1006.1 mb 0.00 in0.0 mm 0.00 in0.0 mm 0.00 in0.0 mm
05:26 AM 56.5°F13.6°C 48.7°F9.3°C 75% 1.6 mph 2.6 kmh 3.1 mph5.0 kmh 29.71 in1006.1 mb 0.00 in0.0 mm 0.00 in0.0 mm 0.00 in0.0 mm
05:31 AM 56.7°F13.7°C 48.7°F9.3°C 75% 1.6 mph E2.6 kmh E 3.1 mph5.0 kmh 29.70 in1005.8 mb 0.00 in0.0 mm 0.00 in0.0 mm 0.00 in0.0 mm
05:36 AM 56.7°F13.7°C 48.7°F9.3°C 75% 1.6 mph E2.6 kmh E 3.1 mph5.0 kmh 29.70 in1005.8 mb 0.00 in0.0 mm 0.00 in0.0 mm 0.00 in0.0 mm
05:42 AM 56.5°F13.6°C 48.7°F9.3°C 75% 2.2 mph E3.5 kmh E 3.8 mph6.1 kmh 29.71 in1006.1 mb 0.00 in0.0 mm 0.00 in0.0 mm 0.00 in0.0 mm
05:47 AM 56.1°F13.4°C 48.4°F9.1°C 75% 2.2 mph E3.5 kmh E 3.8 mph6.1 kmh 29.71 in1006.1 mb 0.00 in0.0 mm 0.00 in0.0 mm 0.00 in0.0 mm
05:52 AM 56.1°F13.4°C 48.4°F9.1°C 75% 1.6 mph E2.6 kmh E 3.8 mph6.1 kmh 29.72 in1006.4 mb 0.00 in0.0 mm 0.00 in0.0 mm 0.00 in0.0 mm
05:57 AM 55.9°F13.3°C 48.2°F9.0°C 75% 2.2 mph E3.5 kmh E 3.1 mph5.0 kmh 29.71 in1006.1 mb 0.00 in0.0 mm 0.00 in0.0 mm 0.00 in0.0 mm
06:02 AM 56.1°F13.4°C 48.4°F9.1°C 75% 3.1 mph E5.0 kmh E 4.5 mph7.2 kmh 29.72 in1006.4 mb 0.00 in0.0 mm 0.00 in0.0 mm 0.00 in0.0 mm
06:07 AM 55.9°F13.3°C 48.2°F9.0°C 75% 3.1 mph NE5.0 kmh NE 4.5 mph7.2 kmh 29.72 in1006.4 mb 0.00 in0.0 mm 0.00 in0.0 mm 0.00 in0.0 mm
06:13 AM 55.8°F13.2°C 48.0°F8.9°C 75% 3.1 mph E5.0 kmh E 3.8 mph6.1 kmh 29.71 in1006.1 mb 0.00 in0.0 mm 0.00 in0.0 mm 0.00 in0.0 mm
06:18 AM 55.6°F13.1°C 47.8°F8.8°C 75% 2.2 mph E3.5 kmh E 4.5 mph7.2 kmh 29.71 in1006.1 mb 0.00 in0.0 mm 0.00 in0.0 mm 0.00 in0.0 mm
06:23 AM 55.2°F12.9°C 48.2°F9.0°C 77% 2.2 mph NE3.5 kmh NE 4.5 mph7.2 kmh 29.72 in1006.4 mb 0.00 in0.0 mm 0.00 in0.0 mm 0.00 in0.0 mm
06:28 AM 55.6°F13.1°C 48.2°F9.0°C 76% 2.2 mph E3.5 kmh E 4.5 mph7.2 kmh 29.72 in1006.4 mb 0.00 in0.0 mm 0.00 in0.0 mm 0.00 in0.0 mm
06:33 AM 56.3°F13.5°C 48.9°F9.4°C 76% 1.6 mph E2.6 kmh E 3.8 mph6.1 kmh 29.72 in1006.4 mb 0.00 in0.0 mm 0.00 in0.0 mm 0.00 in0.0 mm
06:38 AM 57.0°F13.9°C 49.5°F9.7°C 76% 1.6 mph 2.6 kmh 3.1 mph5.0 kmh 29.72 in1006.4 mb 0.00 in0.0 mm 0.00 in0.0 mm 0.00 in0.0 mm
06:44 AM 58.1°F14.5°C 49.8°F9.9°C 74% 0.7 mph E1.1 kmh E 3.1 mph5.0 kmh 29.72 in1006.4 mb 0.00 in0.0 mm 0.00 in0.0 mm 0.00 in0.0 mm
06:49 AM 58.3°F14.6°C 50.0°F10.0°C 74% 2.2 mph NE3.5 kmh NE 4.5 mph7.2 kmh 29.72 in1006.4 mb 0.00 in0.0 mm 0.00 in0.0 mm 0.00 in0.0 mm
06:54 AM 58.5°F14.7°C 49.8°F9.9°C 73% 2.2 mph E3.5 kmh E 3.8 mph6.1 kmh 29.72 in1006.4 mb 0.00 in0.0 mm 0.00 in0.0 mm 0.00 in0.0 mm
06:59 AM 58.8°F14.9°C 49.8°F9.9°C 72% 2.2 mph E3.5 kmh E 4.5 mph7.2 kmh 29.72 in1006.4 mb 0.00 in0.0 mm 0.00 in0.0 mm 0.00 in0.0 mm
07:04 AM 59.5°F15.3°C 50.2°F10.1°C 71% 1.6 mph NE2.6 kmh NE 3.8 mph6.1 kmh 29.72 in1006.4 mb 0.00 in0.0 mm 0.00 in0.0 mm 0.00 in0.0 mm
07:09 AM 60.1°F15.6°C 50.7°F10.4°C 71% 2.2 mph NE3.5 kmh NE 5.4 mph8.7 kmh 29.73 in1006.8 mb 0.00 in0.0 mm 0.00 in0.0 mm 0.00 in0.0 mm
07:15 AM 60.3°F15.7°C 50.4°F10.2°C 70% 1.6 mph NE2.6 kmh NE 3.8 mph6.1 kmh 29.73 in1006.8 mb 0.00 in0.0 mm 0.00 in0.0 mm 0.00 in0.0 mm
07:20 AM 61.2°F16.2°C 50.9°F10.5°C 69% 3.8 mph E6.1 kmh E 5.4 mph8.7 kmh 29.73 in1006.8 mb 0.00 in0.0 mm 0.00 in0.0 mm 0.00 in0.0 mm
07:25 AM 60.8°F16.0°C 50.2°F10.1°C 68% 3.1 mph NE5.0 kmh NE 5.4 mph8.7 kmh 29.73 in1006.8 mb 0.00 in0.0 mm 0.00 in0.0 mm 0.00 in0.0 mm
07:30 AM 61.2°F16.2°C 50.5°F10.3°C 68% 2.2 mph ENE3.5 kmh ENE 5.4 mph8.7 kmh 29.73 in1006.8 mb 0.00 in0.0 mm 0.00 in0.0 mm 0.00 in0.0 mm
07:35 AM 61.9°F16.6°C 51.3°F10.7°C 68% 3.1 mph 5.0 kmh 6.0 mph9.7 kmh 29.73 in1006.8 mb 0.00 in0.0 mm 0.00 in0.0 mm 0.00 in0.0 mm
07:40 AM 62.4°F16.9°C 51.8°F11.0°C 68% 3.1 mph NE5.0 kmh NE 6.0 mph9.7 kmh 29.73 in1006.8 mb 0.00 in0.0 mm 0.00 in0.0 mm 0.00 in0.0 mm
07:46 AM 62.8°F17.1°C 51.6°F10.9°C 67% 3.1 mph NE5.0 kmh NE 5.4 mph8.7 kmh 29.73 in1006.8 mb 0.00 in0.0 mm 0.00 in0.0 mm 0.00 in0.0 mm
07:51 AM 63.1°F17.3°C 52.0°F11.1°C 67% 3.8 mph NE6.1 kmh NE 6.9 mph11.1 kmh 29.73 in1006.8 mb 0.00 in0.0 mm 0.00 in0.0 mm 0.00 in0.0 mm
07:56 AM 63.7°F17.6°C 52.5°F11.4°C 67% 5.4 mph NNE8.7 kmh NNE 7.6 mph12.2 kmh 29.73 in1006.8 mb 0.00 in0.0 mm 0.00 in0.0 mm 0.00 in0.0 mm
08:01 AM 64.9°F18.3°C 53.2°F11.8°C 66% 2.2 mph 3.5 kmh 7.6 mph12.2 kmh 29.73 in1006.8 mb 0.00 in0.0 mm 0.00 in0.0 mm 0.00 in0.0 mm
08:06 AM 65.8°F18.8°C 53.8°F12.1°C 65% 5.4 mph NE8.7 kmh NE 7.6 mph12.2 kmh 29.73 in1006.8 mb 0.00 in0.0 mm 0.00 in0.0 mm 0.00 in0.0 mm
08:11 AM 66.2°F19.0°C 53.2°F11.8°C 63% 3.8 mph E6.1 kmh E 9.2 mph14.8 kmh 29.73 in1006.8 mb 0.00 in0.0 mm 0.00 in0.0 mm 0.00 in0.0 mm
08:17 AM 67.1°F19.5°C 54.1°F12.3°C 63% 5.4 mph NE8.7 kmh NE 9.2 mph14.8 kmh 29.73 in1006.8 mb 0.00 in0.0 mm 0.00 in0.0 mm 0.00 in0.0 mm
08:22 AM 67.8°F19.9°C 54.3°F12.4°C 62% 7.6 mph NE12.2 kmh NE 9.2 mph14.8 kmh 29.73 in1006.8 mb 0.00 in0.0 mm 0.00 in0.0 mm 0.00 in0.0 mm
08:27 AM 67.8°F19.9°C 54.3°F12.4°C 62% 4.5 mph 7.2 kmh 11.4 mph18.3 kmh 29.73 in1006.8 mb 0.00 in0.0 mm 0.00 in0.0 mm 0.00 in0.0 mm
08:32 AM 67.8°F19.9°C 54.0°F12.2°C 61% 9.2 mph 14.8 kmh 12.1 mph19.5 kmh 29.72 in1006.4 mb 0.00 in0.0 mm 0.00 in0.0 mm 0.00 in0.0 mm
08:37 AM 68.0°F20.0°C 54.0°F12.2°C 61% 6.9 mph 11.1 kmh 10.7 mph17.2 kmh 29.73 in1006.8 mb 0.00 in0.0 mm 0.00 in0.0 mm 0.00 in0.0 mm
08:42 AM 68.4°F20.2°C 54.0°F12.2°C 60% 3.8 mph 6.1 kmh 12.1 mph19.5 kmh 29.72 in1006.4 mb 0.00 in0.0 mm 0.00 in0.0 mm 0.00 in0.0 mm
08:48 AM 69.3°F20.7°C 54.9°F12.7°C 60% 3.1 mph E5.0 kmh E 10.7 mph17.2 kmh 29.72 in1006.4 mb 0.00 in0.0 mm 0.00 in0.0 mm 0.00 in0.0 mm
08:53 AM 70.2°F21.2°C 55.2°F12.9°C 59% 6.0 mph NE9.7 kmh NE 13.0 mph20.9 kmh 29.72 in1006.4 mb 0.00 in0.0 mm 0.00 in0.0 mm 0.00 in0.0 mm
08:58 AM 70.9°F21.6°C 55.4°F13.0°C 58% 4.5 mph 7.2 kmh 9.2 mph14.8 kmh 29.72 in1006.4 mb 0.00 in0.0 mm 0.00 in0.0 mm 0.00 in0.0 mm
09:03 AM 71.8°F22.1°C 56.1°F13.4°C 58% 4.5 mph 7.2 kmh 11.4 mph18.3 kmh 29.72 in1006.4 mb 0.00 in0.0 mm 0.00 in0.0 mm 0.00 in0.0 mm
09:08 AM 71.8°F22.1°C 55.8°F13.2°C 57% 6.9 mph NE11.1 kmh NE 11.4 mph18.3 kmh 29.72 in1006.4 mb 0.00 in0.0 mm 0.00 in0.0 mm 0.00 in0.0 mm
09:14 AM 72.1°F22.3°C 56.1°F13.4°C 57% 4.5 mph 7.2 kmh 11.4 mph18.3 kmh 29.72 in1006.4 mb 0.00 in0.0 mm 0.00 in0.0 mm 0.00 in0.0 mm
09:19 AM 72.1°F22.3°C 56.1°F13.4°C 57% 5.4 mph NNE8.7 kmh NNE 14.5 mph23.3 kmh 29.72 in1006.4 mb 0.00 in0.0 mm 0.00 in0.0 mm 0.00 in0.0 mm
09:24 AM 72.9°F22.7°C 56.7°F13.7°C 57% 5.4 mph 8.7 kmh 9.8 mph15.8 kmh 29.72 in1006.4 mb 0.00 in0.0 mm 0.00 in0.0 mm 0.00 in0.0 mm
09:29 AM 73.0°F22.8°C 56.5°F13.6°C 56% 8.3 mph NW13.4 kmh NW 13.6 mph21.9 kmh 29.73 in1006.8 mb 0.00 in0.0 mm 0.00 in0.0 mm 0.00 in0.0 mm
09:34 AM 72.7°F22.6°C 56.1°F13.4°C 56% 4.5 mph W7.2 kmh W 17.4 mph28.0 kmh 29.73 in1006.8 mb 0.00 in0.0 mm 0.00 in0.0 mm 0.00 in0.0 mm
09:39 AM 73.8°F23.2°C 56.7°F13.7°C 55% 6.9 mph NE11.1 kmh NE 13.0 mph20.9 kmh 29.73 in1006.8 mb 0.00 in0.0 mm 0.00 in0.0 mm 0.00 in0.0 mm
09:45 AM 74.5°F23.6°C 57.2°F14.0°C 55% 5.4 mph 8.7 kmh 13.0 mph20.9 kmh 29.73 in1006.8 mb 0.00 in0.0 mm 0.00 in0.0 mm 0.00 in0.0 mm
09:50 AM 75.4°F24.1°C 57.0°F13.9°C 53% 4.5 mph 7.2 kmh 10.7 mph17.2 kmh 29.73 in1006.8 mb 0.00 in0.0 mm 0.00 in0.0 mm 0.00 in0.0 mm
09:55 AM 75.2°F24.0°C 56.3°F13.5°C 52% 5.4 mph 8.7 kmh 17.4 mph28.0 kmh 29.73 in1006.8 mb 0.00 in0.0 mm 0.00 in0.0 mm 0.00 in0.0 mm
10:00 AM 75.7°F24.3°C 56.3°F13.5°C 51% 6.0 mph NW9.7 kmh NW 13.6 mph21.9 kmh 29.73 in1006.8 mb 0.00 in0.0 mm 0.00 in0.0 mm 0.00 in0.0 mm
10:05 AM 76.3°F24.6°C 56.8°F13.8°C 51% 6.9 mph SE11.1 kmh SE 13.0 mph20.9 kmh 29.73 in1006.8 mb 0.00 in0.0 mm 0.00 in0.0 mm 0.00 in0.0 mm
10:10 AM 76.8°F24.9°C 57.4°F14.1°C 51% 6.9 mph NW11.1 kmh NW 9.8 mph15.8 kmh 29.73 in1006.8 mb 0.00 in0.0 mm 0.00 in0.0 mm 0.00 in0.0 mm
10:16 AM 76.6°F24.8°C 57.2°F14.0°C 51% 6.9 mph NNW11.1 kmh NNW 12.1 mph19.5 kmh 29.72 in1006.4 mb 0.00 in0.0 mm 0.00 in0.0 mm 0.00 in0.0 mm
10:21 AM 76.5°F24.7°C 56.5°F13.6°C 50% 6.0 mph NNE9.7 kmh NNE 16.8 mph27.0 kmh 29.72 in1006.4 mb 0.00 in0.0 mm 0.00 in0.0 mm 0.00 in0.0 mm
10:26 AM 76.1°F24.5°C 56.1°F13.4°C 50% 9.2 mph NE14.8 kmh NE 16.8 mph27.0 kmh 29.72 in1006.4 mb 0.00 in0.0 mm 0.00 in0.0 mm 0.00 in0.0 mm
10:31 AM 76.8°F24.9°C 57.4°F14.1°C 51% 9.2 mph NW14.8 kmh NW 15.9 mph25.6 kmh 29.72 in1006.4 mb 0.00 in0.0 mm 0.00 in0.0 mm 0.00 in0.0 mm
10:36 AM 77.4°F25.2°C 56.7°F13.7°C 49% 7.6 mph NW12.2 kmh NW 15.2 mph24.5 kmh 29.72 in1006.4 mb 0.00 in0.0 mm 0.00 in0.0 mm 0.00 in0.0 mm
10:41 AM 77.0°F25.0°C 56.3°F13.5°C 49% 7.6 mph 12.2 kmh 14.5 mph23.3 kmh 29.72 in1006.4 mb 0.00 in0.0 mm 0.00 in0.0 mm 0.00 in0.0 mm
10:47 AM 77.5°F25.3°C 56.3°F13.5°C 48% 9.2 mph NW14.8 kmh NW 13.6 mph21.9 kmh 29.72 in1006.4 mb 0.00 in0.0 mm 0.00 in0.0 mm 0.00 in0.0 mm
10:52 AM 78.1°F25.6°C 55.6°F13.1°C 46% 11.4 mph WNW18.3 kmh WNW 15.2 mph24.5 kmh 29.72 in1006.4 mb 0.00 in0.0 mm 0.00 in0.0 mm 0.00 in0.0 mm
10:57 AM 77.9°F25.5°C 54.9°F12.7°C 45% 9.2 mph NW14.8 kmh NW 19.0 mph30.6 kmh 29.72 in1006.4 mb 0.00 in0.0 mm 0.00 in0.0 mm 0.00 in0.0 mm
11:02 AM 77.7°F25.4°C 55.2°F12.9°C 46% 9.8 mph NW15.8 kmh NW 15.2 mph24.5 kmh 29.72 in1006.4 mb 0.00 in0.0 mm 0.00 in0.0 mm 0.00 in0.0 mm
11:07 AM 78.3°F25.7°C 55.8°F13.2°C 46% 6.0 mph NW9.7 kmh NW 13.6 mph21.9 kmh 29.72 in1006.4 mb 0.00 in0.0 mm 0.00 in0.0 mm 0.00 in0.0 mm
11:12 AM 78.3°F25.7°C 55.2°F12.9°C 45% 12.1 mph W19.5 kmh W 14.5 mph23.3 kmh 29.72 in1006.4 mb 0.00 in0.0 mm 0.00 in0.0 mm 0.00 in0.0 mm
11:18 AM 78.4°F25.8°C 55.9°F13.3°C 46% 6.9 mph NW11.1 kmh NW 12.1 mph19.5 kmh 29.72 in1006.4 mb 0.00 in0.0 mm 0.00 in0.0 mm 0.00 in0.0 mm
11:23 AM 78.6°F25.9°C 56.1°F13.4°C 46% 6.0 mph W9.7 kmh W 13.0 mph20.9 kmh 29.72 in1006.4 mb 0.00 in0.0 mm 0.00 in0.0 mm 0.00 in0.0 mm
11:28 AM 78.8°F26.0°C 54.5°F12.5°C 43% 7.6 mph NW12.2 kmh NW 15.9 mph25.6 kmh 29.71 in1006.1 mb 0.00 in0.0 mm 0.00 in0.0 mm 0.00 in0.0 mm
11:33 AM 79.0°F26.1°C 54.5°F12.5°C 43% 11.4 mph NW18.3 kmh NW 15.9 mph25.6 kmh 29.71 in1006.1 mb 0.00 in0.0 mm 0.00 in0.0 mm 0.00 in0.0 mm
11:38 AM 79.0°F26.1°C 54.5°F12.5°C 43% 3.8 mph NW6.1 kmh NW 15.2 mph24.5 kmh 29.70 in1005.8 mb 0.00 in0.0 mm 0.00 in0.0 mm 0.00 in0.0 mm
11:43 AM 79.0°F26.1°C 54.0°F12.2°C 42% 8.3 mph NW13.4 kmh NW 12.1 mph19.5 kmh 29.70 in1005.8 mb 0.00 in0.0 mm 0.00 in0.0 mm 0.00 in0.0 mm
11:49 AM 79.0°F26.1°C 54.0°F12.2°C 42% 10.7 mph NW17.2 kmh NW 15.9 mph25.6 kmh 29.70 in1005.8 mb 0.00 in0.0 mm 0.00 in0.0 mm 0.00 in0.0 mm
11:54 AM 78.8°F26.0°C 53.1°F11.7°C 41% 5.4 mph 8.7 kmh 15.2 mph24.5 kmh 29.70 in1005.8 mb 0.00 in0.0 mm 0.00 in0.0 mm 0.00 in0.0 mm
11:59 AM 79.0°F26.1°C 54.5°F12.5°C 43% 7.6 mph 12.2 kmh 11.4 mph18.3 kmh 29.70 in1005.8 mb 0.00 in0.0 mm 0.00 in0.0 mm 0.00 in0.0 mm
12:04 PM 79.7°F26.5°C 54.5°F12.5°C 42% 9.2 mph NW14.8 kmh NW 13.6 mph21.9 kmh 29.70 in1005.8 mb 0.00 in0.0 mm 0.00 in0.0 mm 0.00 in0.0 mm
12:09 PM 79.7°F26.5°C 54.5°F12.5°C 42% 6.9 mph NW11.1 kmh NW 13.6 mph21.9 kmh 29.70 in1005.8 mb 0.00 in0.0 mm 0.00 in0.0 mm 0.00 in0.0 mm
12:14 PM 79.7°F26.5°C 55.2°F12.9°C 43% 5.4 mph 8.7 kmh 15.2 mph24.5 kmh 29.69 in1005.4 mb 0.00 in0.0 mm 0.00 in0.0 mm 0.00 in0.0 mm
12:20 PM 80.6°F27.0°C 56.1°F13.4°C 43% 6.9 mph W11.1 kmh W 11.4 mph18.3 kmh 29.70 in1005.8 mb 0.00 in0.0 mm 0.00 in0.0 mm 0.00 in0.0 mm
12:25 PM 80.8°F27.1°C 56.8°F13.8°C 44% 8.3 mph NW13.4 kmh NW 10.7 mph17.2 kmh 29.69 in1005.4 mb 0.00 in0.0 mm 0.00 in0.0 mm 0.00 in0.0 mm
12:30 PM 81.0°F27.2°C 57.0°F13.9°C 44% 5.4 mph NW8.7 kmh NW 9.8 mph15.8 kmh 29.69 in1005.4 mb 0.00 in0.0 mm 0.00 in0.0 mm 0.00 in0.0 mm
12:35 PM 80.4°F26.9°C 55.2°F12.9°C 42% 6.0 mph NW9.7 kmh NW 13.0 mph20.9 kmh 29.69 in1005.4 mb 0.00 in0.0 mm 0.00 in0.0 mm 0.00 in0.0 mm
12:40 PM 80.4°F26.9°C 55.9°F13.3°C 43% 7.6 mph NW12.2 kmh NW 12.1 mph19.5 kmh 29.68 in1005.1 mb 0.00 in0.0 mm 0.00 in0.0 mm 0.00 in0.0 mm
12:45 PM 81.0°F27.2°C 57.0°F13.9°C 44% 5.4 mph NW8.7 kmh NW 12.1 mph19.5 kmh 29.68 in1005.1 mb 0.00 in0.0 mm 0.00 in0.0 mm 0.00 in0.0 mm
12:51 PM 81.5°F27.5°C 56.8°F13.8°C 43% 6.0 mph NNW9.7 kmh NNW 12.1 mph19.5 kmh 29.68 in1005.1 mb 0.00 in0.0 mm 0.00 in0.0 mm 0.00 in0.0 mm
12:56 PM 81.1°F27.3°C 56.5°F13.6°C 43% 5.4 mph NW8.7 kmh NW 13.6 mph21.9 kmh 29.68 in1005.1 mb 0.00 in0.0 mm 0.00 in0.0 mm 0.00 in0.0 mm
01:01 PM 81.5°F27.5°C 56.8°F13.8°C 43% 6.0 mph NW9.7 kmh NW 13.6 mph21.9 kmh 29.68 in1005.1 mb 0.00 in0.0 mm 0.00 in0.0 mm 0.00 in0.0 mm
01:06 PM 82.0°F27.8°C 57.4°F14.1°C 43% 5.4 mph NW8.7 kmh NW 12.1 mph19.5 kmh 29.67 in1004.7 mb 0.00 in0.0 mm 0.00 in0.0 mm 0.00 in0.0 mm
01:11 PM 82.0°F27.8°C 57.4°F14.1°C 43% 7.6 mph NW12.2 kmh NW 11.4 mph18.3 kmh 29.67 in1004.7 mb 0.00 in0.0 mm 0.00 in0.0 mm 0.00 in0.0 mm
01:16 PM 82.4°F28.0°C 57.0°F13.9°C 42% 10.7 mph W17.2 kmh W 14.5 mph23.3 kmh 29.67 in1004.7 mb 0.00 in0.0 mm 0.00 in0.0 mm 0.00 in0.0 mm
01:22 PM 81.7°F27.6°C 57.0°F13.9°C 43% 6.9 mph NW11.1 kmh NW 14.5 mph23.3 kmh 29.66 in1004.4 mb 0.00 in0.0 mm 0.00 in0.0 mm 0.00 in0.0 mm
01:27 PM 81.7°F27.6°C 57.6°F14.2°C 44% 4.5 mph NE7.2 kmh NE 10.7 mph17.2 kmh 29.66 in1004.4 mb 0.00 in0.0 mm 0.00 in0.0 mm 0.00 in0.0 mm
01:32 PM 82.6°F28.1°C 57.2°F14.0°C 42% 3.8 mph 6.1 kmh 10.7 mph17.2 kmh 29.66 in1004.4 mb 0.00 in0.0 mm 0.00 in0.0 mm 0.00 in0.0 mm
01:37 PM 82.6°F28.1°C 57.2°F14.0°C 42% 6.9 mph NW11.1 kmh NW 11.4 mph18.3 kmh 29.66 in1004.4 mb 0.00 in0.0 mm 0.00 in0.0 mm 0.00 in0.0 mm
01:42 PM 82.0°F27.8°C 57.4°F14.1°C 43% 6.9 mph NW11.1 kmh NW 11.4 mph18.3 kmh 29.66 in1004.4 mb 0.00 in0.0 mm 0.00 in0.0 mm 0.00 in0.0 mm
01:47 PM 81.5°F27.5°C 56.8°F13.8°C 43% 9.8 mph NW15.8 kmh NW 13.0 mph20.9 kmh 29.66 in1004.4 mb 0.00 in0.0 mm 0.00 in0.0 mm 0.00 in0.0 mm
01:53 PM 82.0°F27.8°C 57.4°F14.1°C 43% 2.2 mph 3.5 kmh 11.4 mph18.3 kmh 29.65 in1004.1 mb 0.00 in0.0 mm 0.00 in0.0 mm 0.00 in0.0 mm
02:34 PM 84.2°F29.0°C 57.2°F14.0°C 40% 6.0 mph 9.7 kmh 11.4 mph18.3 kmh 29.64 in1003.7 mb 0.00 in0.0 mm 0.00 in0.0 mm 0.00 in0.0 mm
03:10 PM 83.5°F28.6°C 57.4°F14.1°C 41% 5.4 mph NE8.7 kmh NE 12.1 mph19.5 kmh 29.62 in1003.0 mb 0.00 in0.0 mm 0.00 in0.0 mm 0.00 in0.0 mm
03:21 PM 84.9°F29.4°C 57.9°F14.4°C 40% 3.1 mph NE5.0 kmh NE 7.6 mph12.2 kmh 29.62 in1003.0 mb 0.00 in0.0 mm 0.00 in0.0 mm 0.00 in0.0 mm
03:52 PM 84.7°F29.3°C 57.7°F14.3°C 40% 7.6 mph NW12.2 kmh NW 9.2 mph14.8 kmh 29.62 in1003.0 mb 0.00 in0.0 mm 0.00 in0.0 mm 0.00 in0.0 mm
03:57 PM 84.4°F29.1°C 57.4°F14.1°C 40% 4.5 mph 7.2 kmh 9.2 mph14.8 kmh 29.62 in1003.0 mb 0.00 in0.0 mm 0.00 in0.0 mm 0.00 in0.0 mm
04:02 PM 84.2°F29.0°C 57.2°F14.0°C 40% 3.8 mph NE6.1 kmh NE 8.3 mph13.4 kmh 29.62 in1003.0 mb 0.00 in0.0 mm 0.00 in0.0 mm 0.00 in0.0 mm
04:07 PM 83.5°F28.6°C 57.4°F14.1°C 41% 5.4 mph NE8.7 kmh NE 9.2 mph14.8 kmh 29.61 in1002.7 mb 0.00 in0.0 mm 0.00 in0.0 mm 0.00 in0.0 mm
04:12 PM 83.7°F28.7°C 57.4°F14.1°C 41% 5.4 mph 8.7 kmh 8.3 mph13.4 kmh 29.62 in1003.0 mb 0.00 in0.0 mm 0.00 in0.0 mm 0.00 in0.0 mm
04:17 PM 83.8°F28.8°C 57.6°F14.2°C 41% 4.5 mph 7.2 kmh 6.9 mph11.1 kmh 29.62 in1003.0 mb 0.00 in0.0 mm 0.00 in0.0 mm 0.00 in0.0 mm
04:23 PM 84.4°F29.1°C 57.4°F14.1°C 40% 3.1 mph E5.0 kmh E 6.0 mph9.7 kmh 29.61 in1002.7 mb 0.00 in0.0 mm 0.00 in0.0 mm 0.00 in0.0 mm
04:28 PM 83.8°F28.8°C 57.6°F14.2°C 41% 2.2 mph 3.5 kmh 9.8 mph15.8 kmh 29.62 in1003.0 mb 0.00 in0.0 mm 0.00 in0.0 mm 0.00 in0.0 mm
04:33 PM 83.8°F28.8°C 57.6°F14.2°C 41% 6.9 mph NE11.1 kmh NE 9.8 mph15.8 kmh 29.61 in1002.7 mb 0.00 in0.0 mm 0.00 in0.0 mm 0.00 in0.0 mm
04:38 PM 83.1°F28.4°C 57.0°F13.9°C 41% 3.8 mph NE6.1 kmh NE 9.8 mph15.8 kmh 29.61 in1002.7 mb 0.00 in0.0 mm 0.00 in0.0 mm 0.00 in0.0 mm
04:43 PM 83.1°F28.4°C 57.0°F13.9°C 41% 5.4 mph NE8.7 kmh NE 10.7 mph17.2 kmh 29.62 in1003.0 mb 0.00 in0.0 mm 0.00 in0.0 mm 0.00 in0.0 mm
04:48 PM 83.3°F28.5°C 57.2°F14.0°C 41% 5.4 mph NE8.7 kmh NE 9.2 mph14.8 kmh 29.62 in1003.0 mb 0.00 in0.0 mm 0.00 in0.0 mm 0.00 in0.0 mm
04:54 PM 83.8°F28.8°C 57.6°F14.2°C 41% 3.1 mph NE5.0 kmh NE 6.0 mph9.7 kmh 29.61 in1002.7 mb 0.00 in0.0 mm 0.00 in0.0 mm 0.00 in0.0 mm
04:59 PM 83.7°F28.7°C 57.4°F14.1°C 41% 0.7 mph NE1.1 kmh NE 9.8 mph15.8 kmh 29.61 in1002.7 mb 0.00 in0.0 mm 0.00 in0.0 mm 0.00 in0.0 mm
05:04 PM 83.5°F28.6°C 57.4°F14.1°C 41% 4.5 mph 7.2 kmh 10.7 mph17.2 kmh 29.62 in1003.0 mb 0.00 in0.0 mm 0.00 in0.0 mm 0.00 in0.0 mm
05:14 PM 82.8°F28.2°C 56.7°F13.7°C 41% 3.1 mph 5.0 kmh 8.3 mph13.4 kmh 29.62 in1003.0 mb 0.00 in0.0 mm 0.00 in0.0 mm 0.00 in0.0 mm
05:19 PM 82.8°F28.2°C 56.7°F13.7°C 41% 6.0 mph E9.7 kmh E 9.2 mph14.8 kmh 29.62 in1003.0 mb 0.00 in0.0 mm 0.00 in0.0 mm 0.00 in0.0 mm
05:25 PM 82.4°F28.0°C 56.3°F13.5°C 41% 3.8 mph NE6.1 kmh NE 9.2 mph14.8 kmh 29.62 in1003.0 mb 0.00 in0.0 mm 0.00 in0.0 mm 0.00 in0.0 mm
05:30 PM 82.8°F28.2°C 56.7°F13.7°C 41% 2.2 mph E3.5 kmh E 6.9 mph11.1 kmh 29.62 in1003.0 mb 0.00 in0.0 mm 0.00 in0.0 mm 0.00 in0.0 mm
05:35 PM 82.9°F28.3°C 56.8°F13.8°C 41% 4.5 mph E7.2 kmh E 8.3 mph13.4 kmh 29.62 in1003.0 mb 0.00 in0.0 mm 0.00 in0.0 mm 0.00 in0.0 mm
05:40 PM 82.9°F28.3°C 56.8°F13.8°C 41% 6.0 mph NE9.7 kmh NE 8.3 mph13.4 kmh 29.62 in1003.0 mb 0.00 in0.0 mm 0.00 in0.0 mm 0.00 in0.0 mm
05:45 PM 82.4°F28.0°C 57.0°F13.9°C 42% 3.1 mph E5.0 kmh E 8.3 mph13.4 kmh 29.62 in1003.0 mb 0.00 in0.0 mm 0.00 in0.0 mm 0.00 in0.0 mm
05:50 PM 82.2°F27.9°C 56.8°F13.8°C 42% 3.8 mph 6.1 kmh 7.6 mph12.2 kmh 29.62 in1003.0 mb 0.00 in0.0 mm 0.00 in0.0 mm 0.00 in0.0 mm
05:56 PM 82.4°F28.0°C 57.0°F13.9°C 42% 2.2 mph NE3.5 kmh NE 6.0 mph9.7 kmh 29.62 in1003.0 mb 0.00 in0.0 mm 0.00 in0.0 mm 0.00 in0.0 mm
06:01 PM 82.4°F28.0°C 57.0°F13.9°C 42% 3.1 mph 5.0 kmh 6.9 mph11.1 kmh 29.62 in1003.0 mb 0.00 in0.0 mm 0.00 in0.0 mm 0.00 in0.0 mm
06:06 PM 81.9°F27.7°C 57.2°F14.0°C 43% 4.5 mph NE7.2 kmh NE 9.2 mph14.8 kmh 29.63 in1003.4 mb 0.00 in0.0 mm 0.00 in0.0 mm 0.00 in0.0 mm
06:11 PM 81.5°F27.5°C 56.8°F13.8°C 43% 2.2 mph 3.5 kmh 7.6 mph12.2 kmh 29.63 in1003.4 mb 0.00 in0.0 mm 0.00 in0.0 mm 0.00 in0.0 mm
06:16 PM 81.5°F27.5°C 57.6°F14.2°C 44% 4.5 mph 7.2 kmh 6.9 mph11.1 kmh 29.62 in1003.0 mb 0.00 in0.0 mm 0.00 in0.0 mm 0.00 in0.0 mm
06:21 PM 81.1°F27.3°C 57.2°F14.0°C 44% 3.1 mph E5.0 kmh E 6.9 mph11.1 kmh 29.63 in1003.4 mb 0.00 in0.0 mm 0.00 in0.0 mm 0.00 in0.0 mm
06:27 PM 80.8°F27.1°C 56.8°F13.8°C 44% 3.8 mph NE6.1 kmh NE 6.0 mph9.7 kmh 29.62 in1003.0 mb 0.00 in0.0 mm 0.00 in0.0 mm 0.00 in0.0 mm
06:32 PM 80.1°F26.7°C 56.1°F13.4°C 44% 5.4 mph E8.7 kmh E 8.3 mph13.4 kmh 29.63 in1003.4 mb 0.00 in0.0 mm 0.00 in0.0 mm 0.00 in0.0 mm
06:37 PM 79.7°F26.5°C 56.5°F13.6°C 45% 4.5 mph E7.2 kmh E 6.9 mph11.1 kmh 29.63 in1003.4 mb 0.00 in0.0 mm 0.00 in0.0 mm 0.00 in0.0 mm
06:42 PM 79.0°F26.1°C 56.5°F13.6°C 46% 3.8 mph E6.1 kmh E 8.3 mph13.4 kmh 29.63 in1003.4 mb 0.00 in0.0 mm 0.00 in0.0 mm 0.00 in0.0 mm
06:47 PM 78.6°F25.9°C 56.7°F13.7°C 47% 4.5 mph E7.2 kmh E 8.3 mph13.4 kmh 29.63 in1003.4 mb 0.00 in0.0 mm 0.00 in0.0 mm 0.00 in0.0 mm
06:52 PM 78.1°F25.6°C 56.8°F13.8°C 48% 3.1 mph E5.0 kmh E 7.6 mph12.2 kmh 29.63 in1003.4 mb 0.00 in0.0 mm 0.00 in0.0 mm 0.00 in0.0 mm
06:58 PM 77.4°F25.2°C 56.7°F13.7°C 49% 5.4 mph E8.7 kmh E 6.9 mph11.1 kmh 29.63 in1003.4 mb 0.00 in0.0 mm 0.00 in0.0 mm 0.00 in0.0 mm
07:03 PM 76.8°F24.9°C 56.8°F13.8°C 50% 3.1 mph NNE5.0 kmh NNE 6.9 mph11.1 kmh 29.62 in1003.0 mb 0.00 in0.0 mm 0.00 in0.0 mm 0.00 in0.0 mm
07:08 PM 76.5°F24.7°C 56.5°F13.6°C 50% 3.8 mph NE6.1 kmh NE 6.9 mph11.1 kmh 29.63 in1003.4 mb 0.00 in0.0 mm 0.00 in0.0 mm 0.00 in0.0 mm
07:13 PM 75.7°F24.3°C 55.8°F13.2°C 50% 4.5 mph E7.2 kmh E 6.9 mph11.1 kmh 29.63 in1003.4 mb 0.00 in0.0 mm 0.00 in0.0 mm 0.00 in0.0 mm
07:18 PM 75.2°F24.0°C 55.8°F13.2°C 51% 3.8 mph NE6.1 kmh NE 6.0 mph9.7 kmh 29.63 in1003.4 mb 0.00 in0.0 mm 0.00 in0.0 mm 0.00 in0.0 mm
07:24 PM 74.8°F23.8°C 56.1°F13.4°C 52% 3.1 mph NE5.0 kmh NE 4.5 mph7.2 kmh 29.63 in1003.4 mb 0.00 in0.0 mm 0.00 in0.0 mm 0.00 in0.0 mm
07:29 PM 74.7°F23.7°C 55.9°F13.3°C 52% 3.8 mph NE6.1 kmh NE 5.4 mph8.7 kmh 29.64 in1003.7 mb 0.00 in0.0 mm 0.00 in0.0 mm 0.00 in0.0 mm
07:34 PM 74.1°F23.4°C 55.9°F13.3°C 53% 3.1 mph NE5.0 kmh NE 4.5 mph7.2 kmh 29.64 in1003.7 mb 0.00 in0.0 mm 0.00 in0.0 mm 0.00 in0.0 mm
07:39 PM 73.9°F23.3°C 55.8°F13.2°C 53% 2.2 mph NNE3.5 kmh NNE 3.8 mph6.1 kmh 29.64 in1003.7 mb 0.00 in0.0 mm 0.00 in0.0 mm 0.00 in0.0 mm
07:44 PM 73.8°F23.2°C 56.1°F13.4°C 54% 2.2 mph NE3.5 kmh NE 4.5 mph7.2 kmh 29.65 in1004.1 mb 0.00 in0.0 mm 0.00 in0.0 mm 0.00 in0.0 mm
07:49 PM 73.4°F23.0°C 55.8°F13.2°C 54% 0.7 mph NE1.1 kmh NE 3.8 mph6.1 kmh 29.65 in1004.1 mb 0.00 in0.0 mm 0.00 in0.0 mm 0.00 in0.0 mm
07:55 PM 73.4°F23.0°C 55.8°F13.2°C 54% 1.6 mph ENE2.6 kmh ENE 3.8 mph6.1 kmh 29.65 in1004.1 mb 0.00 in0.0 mm 0.00 in0.0 mm 0.00 in0.0 mm
08:00 PM 73.4°F23.0°C 55.8°F13.2°C 54% 1.6 mph E2.6 kmh E 3.8 mph6.1 kmh 29.65 in1004.1 mb 0.00 in0.0 mm 0.00 in0.0 mm 0.00 in0.0 mm
08:05 PM 73.2°F22.9°C 56.1°F13.4°C 55% 1.6 mph E2.6 kmh E 3.1 mph5.0 kmh 29.65 in1004.1 mb 0.00 in0.0 mm 0.00 in0.0 mm 0.00 in0.0 mm
08:10 PM 73.0°F22.8°C 55.9°F13.3°C 55% 1.6 mph E2.6 kmh E 3.8 mph6.1 kmh 29.66 in1004.4 mb 0.00 in0.0 mm 0.00 in0.0 mm 0.00 in0.0 mm
08:15 PM 73.0°F22.8°C 56.5°F13.6°C 56% 1.6 mph E2.6 kmh E 3.1 mph5.0 kmh 29.66 in1004.4 mb 0.00 in0.0 mm 0.00 in0.0 mm 0.00 in0.0 mm
08:20 PM 72.9°F22.7°C 56.3°F13.5°C 56% 2.2 mph E3.5 kmh E 3.8 mph6.1 kmh 29.66 in1004.4 mb 0.00 in0.0 mm 0.00 in0.0 mm 0.00 in0.0 mm
08:26 PM 72.7°F22.6°C 56.1°F13.4°C 56% 2.2 mph E3.5 kmh E 3.1 mph5.0 kmh 29.66 in1004.4 mb 0.00 in0.0 mm 0.00 in0.0 mm 0.00 in0.0 mm
08:31 PM 72.7°F22.6°C 56.1°F13.4°C 56% 1.6 mph SE2.6 kmh SE 3.1 mph5.0 kmh 29.66 in1004.4 mb 0.00 in0.0 mm 0.00 in0.0 mm 0.00 in0.0 mm
08:36 PM 72.3°F22.4°C 55.8°F13.2°C 56% 0.7 mph SE1.1 kmh SE 3.8 mph6.1 kmh 29.67 in1004.7 mb 0.00 in0.0 mm 0.00 in0.0 mm 0.00 in0.0 mm
08:41 PM 72.1°F22.3°C 55.6°F13.1°C 56% 0.7 mph NE1.1 kmh NE 2.2 mph3.5 kmh 29.67 in1004.7 mb 0.00 in0.0 mm 0.00 in0.0 mm 0.00 in0.0 mm
08:46 PM 72.0°F22.2°C 55.4°F13.0°C 56% 1.6 mph SE2.6 kmh SE 3.1 mph5.0 kmh 29.67 in1004.7 mb 0.00 in0.0 mm 0.00 in0.0 mm 0.00 in0.0 mm
08:51 PM 72.0°F22.2°C 55.4°F13.0°C 56% 2.2 mph NE3.5 kmh NE 4.5 mph7.2 kmh 29.67 in1004.7 mb 0.00 in0.0 mm 0.00 in0.0 mm 0.00 in0.0 mm
08:57 PM 71.6°F22.0°C 55.6°F13.1°C 57% 2.2 mph NE3.5 kmh NE 3.8 mph6.1 kmh 29.67 in1004.7 mb 0.00 in0.0 mm 0.00 in0.0 mm 0.00 in0.0 mm
09:02 PM 71.4°F21.9°C 55.9°F13.3°C 58% 3.8 mph NE6.1 kmh NE 5.4 mph8.7 kmh 29.67 in1004.7 mb 0.00 in0.0 mm 0.00 in0.0 mm 0.00 in0.0 mm
09:07 PM 70.9°F21.6°C 55.4°F13.0°C 58% 2.2 mph ENE3.5 kmh ENE 5.4 mph8.7 kmh 29.68 in1005.1 mb 0.00 in0.0 mm 0.00 in0.0 mm 0.00 in0.0 mm
09:12 PM 70.9°F21.6°C 55.4°F13.0°C 58% 3.8 mph E6.1 kmh E 4.5 mph7.2 kmh 29.67 in1004.7 mb 0.00 in0.0 mm 0.00 in0.0 mm 0.00 in0.0 mm
09:17 PM 70.2°F21.2°C 54.7°F12.6°C 58% 0.7 mph E1.1 kmh E 4.5 mph7.2 kmh 29.67 in1004.7 mb 0.00 in0.0 mm 0.00 in0.0 mm 0.00 in0.0 mm
09:22 PM 70.2°F21.2°C 55.2°F12.9°C 59% 3.1 mph NE5.0 kmh NE 4.5 mph7.2 kmh 29.68 in1005.1 mb 0.00 in0.0 mm 0.00 in0.0 mm 0.00 in0.0 mm
09:28 PM 69.8°F21.0°C 54.9°F12.7°C 59% 1.6 mph NE2.6 kmh NE 5.4 mph8.7 kmh 29.68 in1005.1 mb 0.00 in0.0 mm 0.00 in0.0 mm 0.00 in0.0 mm
09:33 PM 69.6°F20.9°C 55.0°F12.8°C 60% 3.1 mph SE5.0 kmh SE 4.5 mph7.2 kmh 29.68 in1005.1 mb 0.00 in0.0 mm 0.00 in0.0 mm 0.00 in0.0 mm
09:38 PM 69.3°F20.7°C 55.2°F12.9°C 61% 5.4 mph NE8.7 kmh NE 6.9 mph11.1 kmh 29.68 in1005.1 mb 0.00 in0.0 mm 0.00 in0.0 mm 0.00 in0.0 mm
09:43 PM 69.1°F20.6°C 55.0°F12.8°C 61% 3.1 mph SE5.0 kmh SE 6.9 mph11.1 kmh 29.69 in1005.4 mb 0.00 in0.0 mm 0.00 in0.0 mm 0.00 in0.0 mm
09:48 PM 68.9°F20.5°C 54.9°F12.7°C 61% 3.1 mph E5.0 kmh E 7.6 mph12.2 kmh 29.69 in1005.4 mb 0.00 in0.0 mm 0.00 in0.0 mm 0.00 in0.0 mm
09:53 PM 68.7°F20.4°C 54.7°F12.6°C 61% 4.5 mph E7.2 kmh E 6.9 mph11.1 kmh 29.69 in1005.4 mb 0.00 in0.0 mm 0.00 in0.0 mm 0.00 in0.0 mm
09:59 PM 68.4°F20.2°C 54.3°F12.4°C 61% 5.4 mph E8.7 kmh E 9.2 mph14.8 kmh 29.68 in1005.1 mb 0.00 in0.0 mm 0.00 in0.0 mm 0.00 in0.0 mm
10:04 PM 67.8°F19.9°C 54.7°F12.6°C 63% 3.8 mph E6.1 kmh E 8.3 mph13.4 kmh 29.68 in1005.1 mb 0.00 in0.0 mm 0.00 in0.0 mm 0.00 in0.0 mm
10:09 PM 67.6°F19.8°C 55.0°F12.8°C 64% 4.5 mph E7.2 kmh E 9.2 mph14.8 kmh 29.68 in1005.1 mb 0.00 in0.0 mm 0.00 in0.0 mm 0.00 in0.0 mm
10:14 PM 67.5°F19.7°C 55.2°F12.9°C 65% 4.5 mph E7.2 kmh E 8.3 mph13.4 kmh 29.69 in1005.4 mb 0.00 in0.0 mm 0.00 in0.0 mm 0.00 in0.0 mm
10:19 PM 67.1°F19.5°C 54.9°F12.7°C 65% 5.4 mph E8.7 kmh E 7.6 mph12.2 kmh 29.68 in1005.1 mb 0.00 in0.0 mm 0.00 in0.0 mm 0.00 in0.0 mm
10:24 PM 66.9°F19.4°C 55.2°F12.9°C 66% 4.5 mph E7.2 kmh E 8.3 mph13.4 kmh 29.69 in1005.4 mb 0.00 in0.0 mm 0.00 in0.0 mm 0.00 in0.0 mm
10:30 PM 66.9°F19.4°C 55.6°F13.1°C 67% 4.5 mph E7.2 kmh E 8.3 mph13.4 kmh 29.68 in1005.1 mb 0.00 in0.0 mm 0.00 in0.0 mm 0.00 in0.0 mm
10:35 PM 66.9°F19.4°C 55.6°F13.1°C 67% 6.0 mph E9.7 kmh E 11.4 mph18.3 kmh 29.68 in1005.1 mb 0.00 in0.0 mm 0.00 in0.0 mm 0.00 in0.0 mm
10:40 PM 66.9°F19.4°C 55.6°F13.1°C 67% 6.0 mph E9.7 kmh E 9.2 mph14.8 kmh 29.67 in1004.7 mb 0.00 in0.0 mm 0.00 in0.0 mm 0.00 in0.0 mm
10:45 PM 66.9°F19.4°C 55.6°F13.1°C 67% 4.5 mph NE7.2 kmh NE 9.2 mph14.8 kmh 29.67 in1004.7 mb 0.00 in0.0 mm 0.00 in0.0 mm 0.00 in0.0 mm
10:50 PM 66.9°F19.4°C 55.6°F13.1°C 67% 7.6 mph NE12.2 kmh NE 10.7 mph17.2 kmh 29.68 in1005.1 mb 0.00 in0.0 mm 0.00 in0.0 mm 0.00 in0.0 mm
10:55 PM 66.9°F19.4°C 55.6°F13.1°C 67% 5.4 mph E8.7 kmh E 12.1 mph19.5 kmh 29.67 in1004.7 mb 0.00 in0.0 mm 0.00 in0.0 mm 0.00 in0.0 mm
11:01 PM 66.9°F19.4°C 55.6°F13.1°C 67% 5.4 mph NE8.7 kmh NE 9.2 mph14.8 kmh 29.68 in1005.1 mb 0.00 in0.0 mm 0.00 in0.0 mm 0.00 in0.0 mm
11:06 PM 66.7°F19.3°C 55.4°F13.0°C 67% 5.4 mph NE8.7 kmh NE 8.3 mph13.4 kmh 29.68 in1005.1 mb 0.00 in0.0 mm 0.00 in0.0 mm 0.00 in0.0 mm
11:11 PM 66.7°F19.3°C 55.4°F13.0°C 67% 4.5 mph NNE7.2 kmh NNE 9.8 mph15.8 kmh 29.68 in1005.1 mb 0.00 in0.0 mm 0.00 in0.0 mm 0.00 in0.0 mm
11:16 PM 66.6°F19.2°C 55.2°F12.9°C 67% 5.4 mph E8.7 kmh E 8.3 mph13.4 kmh 29.67 in1004.7 mb 0.00 in0.0 mm 0.00 in0.0 mm 0.00 in0.0 mm
11:21 PM 66.6°F19.2°C 55.2°F12.9°C 67% 4.5 mph E7.2 kmh E 9.8 mph15.8 kmh 29.68 in1005.1 mb 0.00 in0.0 mm 0.00 in0.0 mm 0.00 in0.0 mm
11:26 PM 66.2°F19.0°C 54.9°F12.7°C 67% 4.5 mph E7.2 kmh E 7.6 mph12.2 kmh 29.67 in1004.7 mb 0.00 in0.0 mm 0.00 in0.0 mm 0.00 in0.0 mm
11:32 PM 66.2°F19.0°C 55.4°F13.0°C 68% 5.4 mph E8.7 kmh E 10.7 mph17.2 kmh 29.67 in1004.7 mb 0.00 in0.0 mm 0.00 in0.0 mm 0.00 in0.0 mm
11:37 PM 65.8°F18.8°C 55.4°F13.0°C 69% 4.5 mph E7.2 kmh E 8.3 mph13.4 kmh 29.67 in1004.7 mb 0.00 in0.0 mm 0.00 in0.0 mm 0.00 in0.0 mm
11:42 PM 65.7°F18.7°C 55.2°F12.9°C 69% 5.4 mph NE8.7 kmh NE 9.2 mph14.8 kmh 29.67 in1004.7 mb 0.00 in0.0 mm 0.00 in0.0 mm 0.00 in0.0 mm
11:47 PM 65.5°F18.6°C 55.0°F12.8°C 69% 5.4 mph E8.7 kmh E 8.3 mph13.4 kmh 29.66 in1004.4 mb 0.00 in0.0 mm 0.00 in0.0 mm 0.00 in0.0 mm
11:52 PM 65.3°F18.5°C 55.2°F12.9°C 70% 6.0 mph E9.7 kmh E 10.7 mph17.2 kmh 29.65 in1004.1 mb 0.00 in0.0 mm 0.00 in0.0 mm 0.00 in0.0 mm
11:57 PM 65.1°F18.4°C 55.0°F12.8°C 70% 6.0 mph E9.7 kmh E 9.8 mph15.8 kmh 29.65 in1004.1 mb 0.00 in0.0 mm 0.00 in0.0 mm 0.00 in0.0 mm